createdAt,value
2018-06-20T00:00:21.684Z,0.00
2018-06-20T00:01:21.674Z,0.00
2018-06-20T00:02:21.660Z,0.00
2018-06-20T00:03:21.654Z,0.00
2018-06-20T00:04:21.646Z,0.00
2018-06-20T00:05:21.640Z,0.00
2018-06-20T00:06:21.636Z,0.00
2018-06-20T00:07:21.666Z,0.00
2018-06-20T00:08:21.615Z,0.00
2018-06-20T00:09:21.605Z,0.00
2018-06-20T00:10:21.599Z,0.00
2018-06-20T00:11:21.587Z,0.00
2018-06-20T00:12:21.579Z,0.00
2018-06-20T00:13:21.575Z,0.00
2018-06-20T00:14:21.561Z,0.00
2018-06-20T00:15:21.557Z,0.00
2018-06-20T00:16:21.548Z,0.00
2018-06-20T00:17:21.536Z,0.00
2018-06-20T00:18:21.527Z,0.00
2018-06-20T00:19:21.522Z,0.00
2018-06-20T00:20:21.516Z,0.00
2018-06-20T00:21:21.508Z,0.00
2018-06-20T00:22:21.500Z,0.00
2018-06-20T00:23:21.489Z,0.00
2018-06-20T00:24:21.479Z,0.00
2018-06-20T00:25:21.469Z,0.00
2018-06-20T00:26:21.462Z,0.00
2018-06-20T00:27:21.462Z,0.00
2018-06-20T00:28:21.448Z,0.00
2018-06-20T00:29:21.440Z,0.00
2018-06-20T00:30:21.430Z,0.00
2018-06-20T00:31:21.422Z,0.00
2018-06-20T00:32:21.411Z,0.00
2018-06-20T00:33:21.405Z,0.00
2018-06-20T00:34:21.399Z,0.00
2018-06-20T00:35:21.386Z,0.00
2018-06-20T00:36:21.378Z,0.00
2018-06-20T00:37:21.368Z,0.00
2018-06-20T00:38:21.360Z,0.00
2018-06-20T00:39:21.363Z,0.00
2018-06-20T00:40:21.341Z,0.00
2018-06-20T00:41:21.333Z,0.00
2018-06-20T00:42:21.327Z,0.00
2018-06-20T00:43:21.321Z,0.00
2018-06-20T00:44:21.315Z,0.00
2018-06-20T00:45:21.301Z,0.00
2018-06-20T00:46:21.295Z,0.00
2018-06-20T00:47:21.287Z,0.00
2018-06-20T00:48:21.280Z,0.00
2018-06-20T00:49:21.272Z,0.00
2018-06-20T00:50:21.260Z,0.00
2018-06-20T00:51:21.252Z,0.00
2018-06-20T00:52:21.250Z,0.00
2018-06-20T00:53:21.232Z,0.00
2018-06-20T00:54:21.250Z,0.00
2018-06-20T00:55:21.222Z,0.00
2018-06-20T00:56:21.210Z,0.00
2018-06-20T00:57:21.204Z,0.00
2018-06-20T00:58:21.193Z,0.00
2018-06-20T00:59:21.175Z,0.00
2018-06-20T01:00:21.175Z,0.00
2018-06-20T01:01:21.163Z,0.00
2018-06-20T01:02:21.161Z,0.00
2018-06-20T01:03:21.147Z,0.00
2018-06-20T01:04:21.142Z,0.00
2018-06-20T01:05:21.136Z,0.00
2018-06-20T01:06:21.129Z,0.00
2018-06-20T01:07:21.114Z,0.00
2018-06-20T01:08:21.101Z,0.00
2018-06-20T01:09:21.097Z,0.00
2018-06-20T01:10:21.097Z,0.00
2018-06-20T01:11:21.079Z,0.00
2018-06-20T01:12:21.072Z,0.00
2018-06-20T01:13:21.074Z,0.00
2018-06-20T01:14:21.060Z,0.00
2018-06-20T01:15:21.048Z,0.00
2018-06-20T01:16:21.037Z,0.00
2018-06-20T01:17:21.024Z,0.00
2018-06-20T01:18:21.019Z,0.00
2018-06-20T01:19:21.013Z,0.00
2018-06-20T01:20:21.001Z,0.00
2018-06-20T01:21:20.992Z,0.00
2018-06-20T01:22:20.981Z,0.00
2018-06-20T01:23:20.980Z,0.00
2018-06-20T01:24:20.970Z,0.00
2018-06-20T01:25:20.956Z,0.00
2018-06-20T01:26:20.946Z,0.00
2018-06-20T01:27:20.940Z,0.00
2018-06-20T01:28:20.940Z,0.00
2018-06-20T01:29:20.926Z,0.00
2018-06-20T01:30:20.915Z,0.00
2018-06-20T01:31:20.909Z,0.00
2018-06-20T01:32:20.898Z,0.00
2018-06-20T01:33:20.888Z,0.00
2018-06-20T01:34:20.882Z,0.00
2018-06-20T01:35:20.871Z,0.00
2018-06-20T01:36:20.867Z,0.00
2018-06-20T01:37:20.856Z,0.00
2018-06-20T01:38:20.846Z,0.00
2018-06-20T01:39:20.836Z,0.00
2018-06-20T01:40:20.832Z,0.00
2018-06-20T01:41:20.819Z,0.00
2018-06-20T01:42:20.813Z,0.00
2018-06-20T01:43:20.799Z,0.00
2018-06-20T01:44:20.792Z,0.00
2018-06-20T01:45:20.786Z,0.00
2018-06-20T01:46:20.779Z,0.00
2018-06-20T01:47:20.762Z,0.00
2018-06-20T01:48:20.756Z,0.00
2018-06-20T01:49:20.750Z,0.00
2018-06-20T01:50:20.738Z,0.00
2018-06-20T01:51:20.732Z,0.00
2018-06-20T01:52:20.725Z,0.00
2018-06-20T01:53:20.713Z,0.00
2018-06-20T01:54:20.704Z,0.00
2018-06-20T01:55:20.693Z,0.00
2018-06-20T01:56:20.689Z,0.00
2018-06-20T01:57:20.677Z,0.00
2018-06-20T01:58:20.669Z,0.00
2018-06-20T01:59:20.659Z,0.00
2018-06-20T02:00:20.656Z,0.00
2018-06-20T02:01:20.646Z,0.00
2018-06-20T02:02:20.634Z,0.00
2018-06-20T02:03:20.622Z,0.00
2018-06-20T02:04:20.614Z,0.00
2018-06-20T02:05:20.609Z,0.00
2018-06-20T02:06:20.598Z,0.00
2018-06-20T02:07:20.584Z,0.00
2018-06-20T02:08:20.576Z,0.00
2018-06-20T02:09:20.574Z,0.00
2018-06-20T02:10:20.566Z,0.00
2018-06-20T02:11:20.553Z,0.00
2018-06-20T02:12:20.540Z,0.00
2018-06-20T02:13:20.534Z,0.00
2018-06-20T02:14:20.522Z,0.00
2018-06-20T02:15:20.515Z,0.00
2018-06-20T02:16:20.509Z,0.00
2018-06-20T02:17:20.503Z,0.00
2018-06-20T02:18:20.493Z,0.00
2018-06-20T02:19:20.484Z,0.00
2018-06-20T02:20:20.477Z,0.00
2018-06-20T02:21:20.462Z,0.00
2018-06-20T02:22:20.454Z,0.00
2018-06-20T02:23:20.449Z,0.00
2018-06-20T02:24:20.434Z,0.00
2018-06-20T02:25:20.424Z,0.00
2018-06-20T02:26:20.418Z,0.00
2018-06-20T02:27:20.408Z,0.00
2018-06-20T02:28:20.396Z,0.00
2018-06-20T02:29:20.391Z,0.00
2018-06-20T02:30:20.401Z,0.00
2018-06-20T02:31:20.376Z,0.00
2018-06-20T02:32:20.372Z,0.00
2018-06-20T02:33:20.354Z,0.00
2018-06-20T02:34:20.346Z,0.00
2018-06-20T02:35:20.338Z,0.00
2018-06-20T02:36:20.327Z,0.00
2018-06-20T02:37:20.321Z,0.00
2018-06-20T02:38:20.308Z,0.00
2018-06-20T02:39:20.302Z,0.00
2018-06-20T02:40:20.296Z,0.00
2018-06-20T02:41:20.285Z,0.00
2018-06-20T02:42:20.273Z,0.00
2018-06-20T02:43:20.260Z,0.00
2018-06-20T02:44:20.257Z,0.00
2018-06-20T02:45:20.245Z,0.00
2018-06-20T02:46:20.237Z,0.00
2018-06-20T02:47:20.224Z,0.00
2018-06-20T02:48:20.220Z,0.00
2018-06-20T02:49:20.209Z,0.00
2018-06-20T02:50:20.198Z,0.00
2018-06-20T02:51:20.191Z,0.00
2018-06-20T02:52:20.180Z,0.00
2018-06-20T02:53:20.170Z,0.00
2018-06-20T02:54:20.164Z,0.00
2018-06-20T02:55:20.153Z,0.00
2018-06-20T02:56:20.155Z,0.00
2018-06-20T02:57:20.135Z,0.00
2018-06-20T02:58:20.125Z,0.00
2018-06-20T02:59:20.123Z,0.00
2018-06-20T03:00:20.107Z,0.00
2018-06-20T03:01:20.095Z,0.00
2018-06-20T03:02:20.091Z,0.00
2018-06-20T03:03:20.077Z,0.00
2018-06-20T03:04:20.070Z,4.00
2018-06-20T03:05:20.063Z,0.00
2018-06-20T03:06:20.053Z,0.00
2018-06-20T03:07:20.036Z,0.00
2018-06-20T03:08:20.036Z,4.00
2018-06-20T03:09:20.024Z,0.00
2018-06-20T03:10:20.014Z,0.00
2018-06-20T03:11:20.007Z,4.00
2018-06-20T03:12:20.001Z,0.00
2018-06-20T03:13:19.987Z,4.00
2018-06-20T03:14:19.982Z,4.00
2018-06-20T03:15:19.970Z,0.00
2018-06-20T03:16:19.963Z,4.00
2018-06-20T03:17:19.950Z,0.00
2018-06-20T03:18:19.940Z,4.00
2018-06-20T03:19:19.933Z,8.00
2018-06-20T03:20:19.944Z,4.00
2018-06-20T03:21:19.917Z,8.00
2018-06-20T03:22:19.905Z,4.00
2018-06-20T03:23:19.899Z,8.00
2018-06-20T03:24:19.885Z,4.00
2018-06-20T03:25:19.884Z,8.00
2018-06-20T03:26:19.873Z,12.00
2018-06-20T03:27:19.924Z,8.00
2018-06-20T03:28:19.850Z,12.00
2018-06-20T03:29:19.837Z,12.00
2018-06-20T03:30:19.833Z,12.00
2018-06-20T03:31:19.822Z,12.00
2018-06-20T03:32:19.816Z,12.00
2018-06-20T03:33:19.805Z,12.00
2018-06-20T03:34:19.798Z,16.00
2018-06-20T03:35:19.785Z,12.00
2018-06-20T03:36:19.779Z,16.00
2018-06-20T03:37:19.767Z,20.00
2018-06-20T03:38:19.757Z,16.00
2018-06-20T03:39:19.749Z,20.00
2018-06-20T03:40:19.743Z,20.00
2018-06-20T03:41:19.737Z,20.00
2018-06-20T03:42:19.724Z,24.00
2018-06-20T03:43:19.710Z,24.00
2018-06-20T03:44:19.702Z,24.00
2018-06-20T03:45:19.695Z,24.00
2018-06-20T03:46:19.692Z,28.00
2018-06-20T03:47:19.675Z,24.00
2018-06-20T03:48:19.663Z,28.00
2018-06-20T03:49:19.661Z,32.00
2018-06-20T03:50:19.648Z,28.00
2018-06-20T03:51:19.646Z,32.00
2018-06-20T03:52:19.627Z,28.00
2018-06-20T03:53:19.616Z,32.00
2018-06-20T03:54:19.611Z,36.00
2018-06-20T03:55:19.602Z,32.00
2018-06-20T03:56:19.591Z,36.00
2018-06-20T03:57:19.591Z,36.00
2018-06-20T03:58:19.575Z,36.00
2018-06-20T03:59:19.558Z,40.00
2018-06-20T04:00:19.559Z,36.00
2018-06-20T04:01:19.544Z,40.00
2018-06-20T04:02:19.563Z,40.00
2018-06-20T04:03:19.528Z,40.00
2018-06-20T04:04:19.516Z,44.00
2018-06-20T04:05:19.506Z,40.00
2018-06-20T04:06:19.497Z,44.00
2018-06-20T04:07:19.491Z,44.00
2018-06-20T04:08:19.483Z,44.00
2018-06-20T04:09:19.468Z,48.00
2018-06-20T04:10:19.473Z,44.00
2018-06-20T04:11:19.451Z,48.00
2018-06-20T04:12:19.441Z,44.00
2018-06-20T04:13:19.436Z,48.00
2018-06-20T04:14:19.423Z,52.00
2018-06-20T04:15:19.415Z,48.00
2018-06-20T04:16:19.407Z,52.00
2018-06-20T04:17:19.396Z,48.00
2018-06-20T04:18:19.412Z,52.00
2018-06-20T04:19:19.378Z,52.00
2018-06-20T04:20:19.368Z,52.00
2018-06-20T04:21:19.363Z,56.00
2018-06-20T04:22:19.349Z,52.00
2018-06-20T04:23:19.343Z,56.00
2018-06-20T04:24:19.334Z,56.00
2018-06-20T04:25:19.323Z,56.00
2018-06-20T04:26:19.316Z,56.00
2018-06-20T04:27:19.320Z,60.00
2018-06-20T04:28:19.299Z,56.00
2018-06-20T04:29:19.285Z,60.00
2018-06-20T04:30:19.277Z,60.00
2018-06-20T04:31:19.268Z,60.00
2018-06-20T04:32:19.258Z,60.00
2018-06-20T04:33:19.252Z,60.00
2018-06-20T04:34:19.241Z,60.00
2018-06-20T04:35:19.234Z,60.00
2018-06-20T04:36:19.225Z,64.00
2018-06-20T04:37:19.212Z,64.00
2018-06-20T04:38:19.206Z,64.00
2018-06-20T04:39:19.193Z,64.00
2018-06-20T04:40:19.186Z,64.00
2018-06-20T04:41:19.175Z,64.00
2018-06-20T04:42:19.171Z,64.00
2018-06-20T04:43:19.157Z,68.00
2018-06-20T04:44:19.155Z,64.00
2018-06-20T04:45:19.139Z,68.00
2018-06-20T04:46:19.132Z,68.00
2018-06-20T04:47:19.118Z,68.00
2018-06-20T04:48:19.114Z,68.00
2018-06-20T04:49:19.100Z,72.00
2018-06-20T04:50:19.088Z,68.00
2018-06-20T04:51:19.084Z,68.00
2018-06-20T04:52:19.076Z,72.00
2018-06-20T04:53:19.070Z,72.00
2018-06-20T04:54:19.057Z,72.00
2018-06-20T04:55:19.044Z,68.00
2018-06-20T04:56:19.035Z,72.00
2018-06-20T04:57:19.025Z,72.00
2018-06-20T04:58:19.019Z,72.00
2018-06-20T04:59:19.009Z,72.00
2018-06-20T05:00:19.000Z,76.00
2018-06-20T05:01:18.994Z,72.00
2018-06-20T05:02:18.989Z,76.00
2018-06-20T05:03:18.971Z,72.00
2018-06-20T05:04:18.996Z,76.00
2018-06-20T05:05:18.948Z,80.00
2018-06-20T05:06:18.945Z,76.00
2018-06-20T05:07:18.937Z,80.00
2018-06-20T05:08:18.925Z,76.00
2018-06-20T05:09:18.918Z,80.00
2018-06-20T05:10:18.913Z,76.00
2018-06-20T05:11:18.902Z,80.00
2018-06-20T05:12:18.891Z,80.00
2018-06-20T05:13:18.880Z,80.00
2018-06-20T05:14:18.873Z,80.00
2018-06-20T05:15:18.859Z,84.00
2018-06-20T05:16:18.855Z,80.00
2018-06-20T05:17:18.843Z,84.00
2018-06-20T05:18:18.835Z,84.00
2018-06-20T05:19:18.818Z,84.00
2018-06-20T05:20:18.826Z,84.00
2018-06-20T05:21:18.806Z,84.00
2018-06-20T05:22:18.801Z,84.00
2018-06-20T05:23:18.787Z,88.00
2018-06-20T05:24:18.774Z,84.00
2018-06-20T05:25:18.769Z,88.00
2018-06-20T05:26:18.759Z,88.00
2018-06-20T05:27:18.747Z,88.00
2018-06-20T05:28:18.742Z,88.00
2018-06-20T05:29:18.732Z,88.00
2018-06-20T05:30:18.722Z,92.00
2018-06-20T05:31:18.714Z,88.00
2018-06-20T05:32:18.703Z,92.00
2018-06-20T05:33:18.703Z,92.00
2018-06-20T05:34:18.689Z,92.00
2018-06-20T05:35:18.673Z,92.00
2018-06-20T05:36:18.667Z,96.00
2018-06-20T05:37:18.664Z,92.00
2018-06-20T05:38:18.645Z,92.00
2018-06-20T05:39:18.635Z,96.00
2018-06-20T05:40:18.629Z,96.00
2018-06-20T05:41:18.625Z,96.00
2018-06-20T05:42:18.609Z,92.00
2018-06-20T05:43:18.607Z,96.00
2018-06-20T05:44:18.593Z,96.00
2018-06-20T05:45:18.583Z,96.00
2018-06-20T05:46:18.580Z,96.00
2018-06-20T05:47:18.565Z,100.00
2018-06-20T05:48:18.562Z,96.00
2018-06-20T05:49:18.553Z,100.00
2018-06-20T05:50:18.537Z,100.00
2018-06-20T05:51:18.526Z,100.00
2018-06-20T05:52:18.522Z,100.00
2018-06-20T05:53:18.505Z,100.00
2018-06-20T05:54:18.505Z,100.00
2018-06-20T05:55:18.490Z,108.00
2018-06-20T05:56:18.483Z,116.00
2018-06-20T05:57:18.508Z,128.00
2018-06-20T05:58:18.462Z,172.00
2018-06-20T05:59:18.448Z,280.00
2018-06-20T06:00:18.450Z,364.00
2018-06-20T06:01:18.441Z,408.00
2018-06-20T06:02:18.427Z,412.00
2018-06-20T06:03:18.417Z,416.00
2018-06-20T06:04:18.409Z,424.00
2018-06-20T06:05:18.500Z,428.00
2018-06-20T06:06:18.394Z,432.00
2018-06-20T06:07:18.383Z,436.00
2018-06-20T06:08:18.372Z,440.00
2018-06-20T06:09:18.361Z,444.00
2018-06-20T06:10:18.357Z,452.00
2018-06-20T06:11:18.352Z,452.00
2018-06-20T06:12:18.333Z,460.00
2018-06-20T06:13:18.334Z,464.00
2018-06-20T06:14:18.318Z,464.00
2018-06-20T06:15:18.317Z,468.00
2018-06-20T06:16:18.310Z,472.00
2018-06-20T06:17:18.294Z,480.00
2018-06-20T06:18:18.287Z,484.00
2018-06-20T06:19:18.273Z,484.00
2018-06-20T06:20:18.268Z,488.00
2018-06-20T06:21:18.258Z,492.00
2018-06-20T06:22:18.253Z,496.00
2018-06-20T06:23:18.275Z,500.00
2018-06-20T06:24:18.236Z,504.00
2018-06-20T06:25:18.229Z,508.00
2018-06-20T06:26:18.211Z,508.00
2018-06-20T06:27:18.207Z,516.00
2018-06-20T06:28:18.202Z,516.00
2018-06-20T06:29:18.194Z,528.00
2018-06-20T06:30:18.186Z,528.00
2018-06-20T06:31:18.173Z,532.00
2018-06-20T06:32:18.167Z,536.00
2018-06-20T06:33:18.157Z,540.00
2018-06-20T06:34:18.145Z,544.00
2018-06-20T06:35:18.142Z,548.00
2018-06-20T06:36:18.137Z,552.00
2018-06-20T06:37:18.123Z,560.00
2018-06-20T06:38:18.119Z,564.00
2018-06-20T06:39:18.106Z,568.00
2018-06-20T06:40:18.100Z,572.00
2018-06-20T06:41:18.096Z,576.00
2018-06-20T06:42:18.089Z,580.00
2018-06-20T06:43:18.076Z,588.00
2018-06-20T06:44:18.074Z,588.00
2018-06-20T06:45:18.058Z,596.00
2018-06-20T06:46:18.052Z,596.00
2018-06-20T06:47:18.044Z,600.00
2018-06-20T06:48:18.037Z,604.00
2018-06-20T06:49:18.030Z,612.00
2018-06-20T06:50:18.024Z,612.00
2018-06-20T06:51:18.013Z,616.00
2018-06-20T06:52:18.010Z,616.00
2018-06-20T06:53:18.001Z,620.00
2018-06-20T06:54:17.991Z,624.00
2018-06-20T06:55:17.984Z,628.00
2018-06-20T06:56:17.982Z,632.00
2018-06-20T06:57:17.968Z,636.00
2018-06-20T06:58:17.960Z,636.00
2018-06-20T06:59:17.954Z,640.00
2018-06-20T07:00:17.949Z,644.00
2018-06-20T07:01:17.939Z,648.00
2018-06-20T07:02:17.935Z,652.00
2018-06-20T07:03:17.922Z,656.00
2018-06-20T07:04:17.920Z,660.00
2018-06-20T07:05:17.909Z,664.00
2018-06-20T07:06:17.900Z,668.00
2018-06-20T07:07:17.896Z,672.00
2018-06-20T07:08:17.883Z,676.00
2018-06-20T07:09:17.890Z,680.00
2018-06-20T07:10:17.872Z,684.00
2018-06-20T07:11:17.861Z,688.00
2018-06-20T07:12:17.853Z,688.00
2018-06-20T07:13:17.849Z,696.00
2018-06-20T07:14:17.851Z,700.00
2018-06-20T07:15:17.839Z,700.00
2018-06-20T07:16:17.823Z,704.00
2018-06-20T07:17:17.819Z,708.00
2018-06-20T07:18:17.813Z,712.00
2018-06-20T07:19:17.808Z,712.00
2018-06-20T07:20:17.800Z,716.00
2018-06-20T07:21:17.794Z,720.00
2018-06-20T07:22:17.788Z,728.00
2018-06-20T07:23:17.777Z,728.00
2018-06-20T07:24:17.838Z,732.00
2018-06-20T07:25:17.767Z,736.00
2018-06-20T07:26:17.760Z,744.00
2018-06-20T07:27:17.755Z,744.00
2018-06-20T07:28:17.745Z,752.00
2018-06-20T07:29:17.806Z,756.00
2018-06-20T07:30:17.733Z,760.00
2018-06-20T07:31:17.720Z,764.00
2018-06-20T07:32:17.713Z,768.00
2018-06-20T07:33:17.706Z,776.00
2018-06-20T07:34:17.706Z,784.00
2018-06-20T07:35:17.696Z,784.00
2018-06-20T07:36:17.803Z,792.00
2018-06-20T07:37:17.686Z,792.00
2018-06-20T07:38:17.681Z,800.00
2018-06-20T07:39:17.667Z,804.00
2018-06-20T07:40:17.665Z,808.00
2018-06-20T07:41:17.659Z,812.00
2018-06-20T07:42:17.649Z,820.00
2018-06-20T07:43:17.645Z,824.00
2018-06-20T07:44:17.635Z,832.00
2018-06-20T07:45:17.633Z,836.00
2018-06-20T07:46:17.631Z,840.00
2018-06-20T07:47:17.624Z,844.00
2018-06-20T07:48:17.615Z,848.00
2018-06-20T07:49:17.605Z,852.00
2018-06-20T07:50:17.597Z,860.00
2018-06-20T07:51:17.591Z,864.00
2018-06-20T07:52:17.588Z,864.00
2018-06-20T07:53:17.579Z,872.00
2018-06-20T07:54:17.575Z,876.00
2018-06-20T07:55:17.564Z,884.00
2018-06-20T07:56:17.559Z,888.00
2018-06-20T07:57:17.557Z,892.00
2018-06-20T07:58:17.553Z,896.00
2018-06-20T07:59:17.546Z,896.00
2018-06-20T08:00:17.538Z,904.00
2018-06-20T08:01:17.531Z,908.00
2018-06-20T08:02:17.524Z,908.00
2018-06-20T08:03:17.515Z,912.00
2018-06-20T08:04:17.517Z,920.00
2018-06-20T08:05:17.505Z,920.00
2018-06-20T08:06:17.559Z,920.00
2018-06-20T08:07:17.502Z,928.00
2018-06-20T08:08:17.484Z,932.00
2018-06-20T08:09:17.482Z,936.00
2018-06-20T08:10:17.474Z,936.00
2018-06-20T08:11:17.462Z,944.00
2018-06-20T08:12:17.468Z,948.00
2018-06-20T08:13:17.459Z,952.00
2018-06-20T08:14:17.450Z,956.00
2018-06-20T08:15:17.446Z,956.00
2018-06-20T08:16:17.437Z,960.00
2018-06-20T08:17:17.436Z,964.00
2018-06-20T08:18:17.424Z,964.00
2018-06-20T08:19:17.421Z,972.00
2018-06-20T08:20:17.412Z,976.00
2018-06-20T08:21:17.409Z,980.00
2018-06-20T08:22:17.408Z,984.00
2018-06-20T08:23:17.396Z,980.00
2018-06-20T08:24:17.394Z,984.00
2018-06-20T08:25:17.386Z,988.00
2018-06-20T08:26:17.378Z,992.00
2018-06-20T08:27:17.372Z,1000.00
2018-06-20T08:28:17.366Z,996.00
2018-06-20T08:29:17.370Z,1004.00
2018-06-20T08:30:17.358Z,1004.00
2018-06-20T08:31:17.347Z,1004.00
2018-06-20T08:32:17.343Z,1012.00
2018-06-20T08:33:17.339Z,1012.00
2018-06-20T08:34:17.331Z,1012.00
2018-06-20T08:35:17.326Z,1016.00
2018-06-20T08:36:17.316Z,1024.00
2018-06-20T08:37:17.321Z,1020.00
2018-06-20T08:38:17.308Z,1020.00
2018-06-20T08:39:17.296Z,1024.00
2018-06-20T08:40:17.299Z,1020.00
2018-06-20T08:41:17.289Z,1028.00
2018-06-20T08:42:17.281Z,1028.00
2018-06-20T08:43:17.277Z,1032.00
2018-06-20T08:44:17.273Z,1032.00
2018-06-20T08:45:17.265Z,1036.00
2018-06-20T08:46:17.259Z,1032.00
2018-06-20T08:47:17.258Z,1036.00
2018-06-20T08:48:17.252Z,1040.00
2018-06-20T08:49:17.243Z,1040.00
2018-06-20T08:50:17.236Z,1040.00
2018-06-20T08:51:17.234Z,1044.00
2018-06-20T08:52:17.224Z,1044.00
2018-06-20T08:53:17.222Z,1048.00
2018-06-20T08:54:17.216Z,1048.00
2018-06-20T08:55:17.211Z,1048.00
2018-06-20T08:56:17.199Z,1048.00
2018-06-20T08:57:17.199Z,1044.00
2018-06-20T08:58:17.189Z,1048.00
2018-06-20T08:59:17.181Z,1048.00
2018-06-20T09:00:17.178Z,1052.00
2018-06-20T09:01:17.172Z,1048.00
2018-06-20T09:02:17.167Z,1048.00
2018-06-20T09:03:17.172Z,1048.00
2018-06-20T09:04:17.160Z,1052.00
2018-06-20T09:05:17.164Z,1052.00
2018-06-20T09:06:17.156Z,1056.00
2018-06-20T09:07:17.139Z,1056.00
2018-06-20T09:08:17.136Z,1056.00
2018-06-20T09:09:17.133Z,1056.00
2018-06-20T09:10:17.121Z,1056.00
2018-06-20T09:11:17.120Z,1056.00
2018-06-20T09:12:17.112Z,1056.00
2018-06-20T09:13:17.106Z,1052.00
2018-06-20T09:14:17.137Z,1052.00
2018-06-20T09:15:17.097Z,1052.00
2018-06-20T09:16:17.090Z,1052.00
2018-06-20T09:17:17.088Z,1056.00
2018-06-20T09:18:17.078Z,1052.00
2018-06-20T09:19:17.075Z,1048.00
2018-06-20T09:20:17.067Z,1052.00
2018-06-20T09:21:17.065Z,1044.00
2018-06-20T09:22:17.059Z,1052.00
2018-06-20T09:23:17.051Z,1052.00
2018-06-20T09:24:17.045Z,1048.00
2018-06-20T09:25:17.041Z,1048.00
2018-06-20T09:26:17.036Z,1044.00
2018-06-20T09:27:17.033Z,1044.00
2018-06-20T09:28:17.024Z,1044.00
2018-06-20T09:29:17.025Z,1044.00
2018-06-20T09:30:17.018Z,1048.00
2018-06-20T09:31:17.012Z,1048.00
2018-06-20T09:32:17.002Z,1048.00
2018-06-20T09:33:17.002Z,1044.00
2018-06-20T09:34:16.985Z,1044.00
2018-06-20T09:35:16.989Z,1044.00
2018-06-20T09:36:16.983Z,1044.00
2018-06-20T09:37:16.977Z,1040.00
2018-06-20T09:38:16.975Z,1032.00
2018-06-20T09:39:16.972Z,1036.00
2018-06-20T09:40:16.960Z,1036.00
2018-06-20T09:41:16.956Z,1036.00
2018-06-20T09:42:16.949Z,1036.00
2018-06-20T09:43:16.945Z,1032.00
2018-06-20T09:44:16.939Z,1028.00
2018-06-20T09:45:16.927Z,1028.00
2018-06-20T09:46:16.923Z,1032.00
2018-06-20T09:47:16.923Z,1024.00
2018-06-20T09:48:16.921Z,1024.00
2018-06-20T09:49:16.911Z,1020.00
2018-06-20T09:50:16.912Z,1020.00
2018-06-20T09:51:16.900Z,1020.00
2018-06-20T09:52:16.894Z,1016.00
2018-06-20T09:53:16.891Z,1016.00
2018-06-20T09:54:16.939Z,1020.00
2018-06-20T09:55:16.879Z,1020.00
2018-06-20T09:56:16.877Z,1024.00
2018-06-20T09:57:16.870Z,1020.00
2018-06-20T09:58:16.870Z,1024.00
2018-06-20T09:59:16.863Z,1020.00
2018-06-20T10:00:16.859Z,1020.00
2018-06-20T10:01:16.853Z,1024.00
2018-06-20T10:02:16.884Z,1020.00
2018-06-20T10:03:16.839Z,1020.00
2018-06-20T10:04:16.839Z,1024.00
2018-06-20T10:05:16.829Z,1024.00
2018-06-20T10:06:16.829Z,1024.00
2018-06-20T10:07:16.820Z,1032.00
2018-06-20T10:08:16.816Z,1028.00
2018-06-20T10:09:16.812Z,1028.00
2018-06-20T10:10:16.812Z,1032.00
2018-06-20T10:11:16.843Z,1028.00
2018-06-20T10:12:16.792Z,1032.00
2018-06-20T10:13:16.813Z,1028.00
2018-06-20T10:14:16.792Z,1028.00
2018-06-20T10:15:16.782Z,1028.00
2018-06-20T10:16:16.775Z,1028.00
2018-06-20T10:17:16.777Z,1028.00
2018-06-20T10:18:16.768Z,1032.00
2018-06-20T10:19:16.759Z,1032.00
2018-06-20T10:20:16.773Z,1032.00
2018-06-20T10:21:16.833Z,1036.00
2018-06-20T10:22:16.762Z,1044.00
2018-06-20T10:23:16.746Z,1040.00
2018-06-20T10:24:16.741Z,1044.00
2018-06-20T10:25:16.731Z,1044.00
2018-06-20T10:26:16.726Z,1048.00
2018-06-20T10:27:16.723Z,1052.00
2018-06-20T10:28:16.719Z,1056.00
2018-06-20T10:29:16.713Z,1060.00
2018-06-20T10:30:16.701Z,1060.00
2018-06-20T10:31:16.710Z,1064.00
2018-06-20T10:32:16.700Z,1068.00
2018-06-20T10:33:16.696Z,1072.00
2018-06-20T10:34:16.712Z,1068.00
2018-06-20T10:35:16.691Z,1072.00
2018-06-20T10:36:16.683Z,1080.00
2018-06-20T10:37:16.676Z,1080.00
2018-06-20T10:38:16.670Z,1088.00
2018-06-20T10:39:16.663Z,1092.00
2018-06-20T10:40:16.661Z,1096.00
2018-06-20T10:41:16.662Z,1100.00
2018-06-20T10:42:16.653Z,1108.00
2018-06-20T10:43:16.647Z,1108.00
2018-06-20T10:44:16.642Z,1116.00
2018-06-20T10:45:16.638Z,1124.00
2018-06-20T10:46:16.715Z,1132.00
2018-06-20T10:47:16.629Z,1136.00
2018-06-20T10:48:16.623Z,1144.00
2018-06-20T10:49:16.678Z,1152.00
2018-06-20T10:50:16.611Z,1152.00
2018-06-20T10:51:16.605Z,1164.00
2018-06-20T10:52:16.604Z,1168.00
2018-06-20T10:53:16.600Z,1180.00
2018-06-20T10:54:16.652Z,1180.00
2018-06-20T10:55:16.589Z,1188.00
2018-06-20T10:56:16.588Z,1192.00
2018-06-20T10:57:16.580Z,1200.00
2018-06-20T10:58:16.577Z,1200.00
2018-06-20T10:59:16.574Z,1208.00
2018-06-20T11:00:16.567Z,1216.00
2018-06-20T11:01:16.564Z,1220.00
2018-06-20T11:02:16.558Z,1228.00
2018-06-20T11:03:16.555Z,1228.00
2018-06-20T11:04:16.545Z,1236.00
2018-06-20T11:05:16.535Z,1244.00
2018-06-20T11:06:16.555Z,1252.00
2018-06-20T11:07:16.531Z,1260.00
2018-06-20T11:08:16.529Z,1260.00
2018-06-20T11:09:16.525Z,1268.00
2018-06-20T11:10:16.523Z,1276.00
2018-06-20T11:11:16.522Z,1280.00
2018-06-20T11:12:16.514Z,1280.00
2018-06-20T11:13:16.512Z,1288.00
2018-06-20T11:14:16.506Z,1292.00
2018-06-20T11:15:16.520Z,1300.00
2018-06-20T11:16:16.495Z,1304.00
2018-06-20T11:17:16.487Z,1316.00
2018-06-20T11:18:16.485Z,1324.00
2018-06-20T11:19:16.486Z,1332.00
2018-06-20T11:20:16.482Z,1336.00
2018-06-20T11:21:16.488Z,1340.00
2018-06-20T11:22:16.470Z,1356.00
2018-06-20T11:23:16.480Z,1364.00
2018-06-20T11:24:16.461Z,1372.00
2018-06-20T11:25:16.458Z,1372.00
2018-06-20T11:26:16.456Z,1384.00
2018-06-20T11:27:16.447Z,1388.00
2018-06-20T11:28:16.447Z,1396.00
2018-06-20T11:29:16.479Z,1404.00
2018-06-20T11:30:16.438Z,1408.00
2018-06-20T11:31:16.435Z,1416.00
2018-06-20T11:32:16.427Z,1424.00
2018-06-20T11:33:16.431Z,1428.00
2018-06-20T11:34:16.426Z,1440.00
2018-06-20T11:35:16.416Z,1456.00
2018-06-20T11:36:16.414Z,1460.00
2018-06-20T11:37:16.410Z,1464.00
2018-06-20T11:38:16.408Z,1468.00
2018-06-20T11:39:16.404Z,1480.00
2018-06-20T11:40:16.400Z,1484.00
2018-06-20T11:41:16.401Z,1492.00
2018-06-20T11:42:16.394Z,1500.00
2018-06-20T11:43:16.387Z,1508.00
2018-06-20T11:44:16.383Z,1516.00
2018-06-20T11:45:16.381Z,1520.00
2018-06-20T11:46:16.377Z,1532.00
2018-06-20T11:47:16.374Z,1544.00
2018-06-20T11:48:16.370Z,1564.00
2018-06-20T11:49:16.368Z,1580.00
2018-06-20T11:50:16.364Z,1588.00
2018-06-20T11:51:16.359Z,1600.00
2018-06-20T11:52:16.357Z,1616.00
2018-06-20T11:53:16.351Z,1628.00
2018-06-20T11:54:16.353Z,1616.00
2018-06-20T11:55:16.347Z,1620.00
2018-06-20T11:56:16.343Z,1624.00
2018-06-20T11:57:16.339Z,1640.00
2018-06-20T11:58:16.354Z,1652.00
2018-06-20T11:59:16.330Z,1652.00
2018-06-20T12:00:16.328Z,1668.00
2018-06-20T12:01:16.326Z,1676.00
2018-06-20T12:02:16.320Z,1688.00
2018-06-20T12:03:16.318Z,1700.00
2018-06-20T12:04:16.316Z,1712.00
2018-06-20T12:05:16.316Z,1712.00
2018-06-20T12:06:16.312Z,1716.00
2018-06-20T12:07:16.303Z,1724.00
2018-06-20T12:08:16.303Z,1736.00
2018-06-20T12:09:16.299Z,1744.00
2018-06-20T12:10:16.291Z,1760.00
2018-06-20T12:11:16.295Z,1792.00
2018-06-20T12:12:16.289Z,1716.00
2018-06-20T12:13:16.283Z,1792.00
2018-06-20T12:14:16.283Z,1804.00
2018-06-20T12:15:16.274Z,1812.00
2018-06-20T12:16:16.282Z,1820.00
2018-06-20T12:17:16.276Z,1912.00
2018-06-20T12:18:16.270Z,380.00
2018-06-20T12:19:16.265Z,372.00
2018-06-20T12:20:16.266Z,408.00
2018-06-20T12:21:16.261Z,400.00
2018-06-20T12:22:16.257Z,496.00
2018-06-20T12:23:16.256Z,1892.00
2018-06-20T12:24:16.252Z,1864.00
2018-06-20T12:25:16.250Z,1844.00
2018-06-20T12:26:16.250Z,1836.00
2018-06-20T12:27:16.244Z,1832.00
2018-06-20T12:28:16.250Z,1860.00
2018-06-20T12:29:16.245Z,1872.00
2018-06-20T12:30:16.234Z,1896.00
2018-06-20T12:31:16.225Z,1384.00
2018-06-20T12:32:16.226Z,1920.00
2018-06-20T12:33:16.223Z,1916.00
2018-06-20T12:34:16.219Z,1912.00
2018-06-20T12:35:16.221Z,1912.00
2018-06-20T12:36:16.208Z,1916.00
2018-06-20T12:37:16.213Z,1924.00
2018-06-20T12:38:16.210Z,1932.00